createdAt,value
2024-02-04T00:00:38.207Z,8.00
2024-02-04T00:03:05.194Z,8.20
2024-02-04T00:05:32.028Z,8.00
2024-02-04T00:07:58.824Z,7.30
2024-02-04T00:10:26.131Z,7.80
2024-02-04T00:12:53.023Z,7.50
2024-02-04T00:15:20.483Z,7.50
2024-02-04T00:17:47.497Z,8.00
2024-02-04T00:20:14.510Z,7.80
2024-02-04T00:22:41.318Z,7.70
2024-02-04T00:25:12.952Z,7.90
2024-02-04T00:27:40.104Z,8.30
2024-02-04T00:30:08.153Z,7.40
2024-02-04T00:32:35.125Z,8.40
2024-02-04T00:35:02.272Z,8.40
2024-02-04T00:37:29.149Z,8.20
2024-02-04T00:39:56.086Z,7.40
2024-02-04T00:42:23.026Z,8.20
2024-02-04T00:44:49.870Z,8.50
2024-02-04T00:47:16.668Z,8.40
2024-02-04T00:49:43.604Z,7.30
2024-02-04T00:52:10.503Z,7.60
2024-02-04T00:54:37.419Z,8.80
2024-02-04T00:57:04.400Z,8.00
2024-02-04T00:59:31.188Z,7.90
2024-02-04T01:01:59.860Z,8.00
2024-02-04T01:04:26.880Z,7.80
2024-02-04T01:07:01.002Z,8.00
2024-02-04T01:09:31.945Z,7.30
2024-02-04T01:11:58.816Z,7.60
2024-02-04T01:14:25.998Z,8.10
2024-02-04T01:16:52.905Z,7.80
2024-02-04T01:19:19.758Z,8.00
2024-02-04T01:21:46.753Z,7.50
2024-02-04T01:24:14.181Z,8.00
2024-02-04T01:26:40.988Z,7.60
2024-02-04T01:29:07.823Z,7.90
2024-02-04T01:31:34.799Z,7.80
2024-02-04T01:34:01.808Z,7.70
2024-02-04T01:36:28.872Z,7.70
2024-02-04T01:38:55.827Z,8.60
2024-02-04T01:41:22.674Z,8.70
2024-02-04T01:43:49.677Z,8.50
2024-02-04T01:46:16.544Z,8.70
2024-02-04T01:48:43.593Z,8.60
2024-02-04T01:51:11.121Z,7.90
2024-02-04T01:53:39.941Z,7.80
2024-02-04T01:56:07.691Z,8.10
2024-02-04T01:58:35.793Z,7.80
2024-02-04T02:01:03.998Z,7.60
2024-02-04T02:03:32.871Z,7.40
2024-02-04T02:06:00.881Z,7.30
2024-02-04T02:08:27.890Z,7.30
2024-02-04T02:11:11.052Z,7.20
2024-02-04T02:13:40.478Z,7.60
2024-02-04T02:16:14.520Z,7.60
2024-02-04T02:18:53.445Z,7.70
2024-02-04T02:21:44.787Z,7.10
2024-02-04T02:24:25.003Z,7.10
2024-02-04T02:26:52.242Z,7.40
2024-02-04T02:29:19.142Z,7.00
2024-02-04T02:31:48.817Z,7.60
2024-02-04T02:37:10.399Z,6.80
2024-02-04T02:39:48.146Z,7.10
2024-02-04T02:42:17.187Z,6.90
2024-02-04T02:44:45.940Z,7.10
2024-02-04T02:47:13.801Z,7.40
2024-02-04T02:49:40.732Z,7.10
2024-02-04T02:52:07.624Z,7.10
2024-02-04T02:54:34.544Z,6.90
2024-02-04T02:57:01.370Z,7.00
2024-02-04T02:59:28.215Z,7.20
2024-02-04T03:01:55.031Z,6.90
2024-02-04T03:04:21.892Z,6.90
2024-02-04T03:06:48.827Z,6.80
2024-02-04T03:09:15.931Z,7.20
2024-02-04T03:11:43.742Z,7.10
2024-02-04T03:14:10.778Z,6.80
2024-02-04T03:16:37.553Z,6.70
2024-02-04T03:19:07.601Z,6.60
2024-02-04T03:21:34.534Z,7.10
2024-02-04T03:24:01.572Z,7.50
2024-02-04T03:26:28.745Z,7.50
2024-02-04T03:28:55.770Z,6.90
2024-02-04T03:31:24.511Z,7.10
2024-02-04T03:33:52.177Z,6.90
2024-02-04T03:36:25.390Z,7.70
2024-02-04T03:38:52.716Z,7.20
2024-02-04T03:41:19.635Z,7.80
2024-02-04T03:43:46.465Z,7.70
2024-02-04T03:46:17.501Z,7.50
2024-02-04T03:48:44.976Z,7.50
2024-02-04T03:51:19.469Z,7.50
2024-02-04T03:53:47.011Z,7.40
2024-02-04T03:56:13.959Z,7.20
2024-02-04T03:58:40.864Z,7.60
2024-02-04T04:01:12.168Z,8.00
2024-02-04T04:03:45.085Z,8.10
2024-02-04T04:06:12.503Z,7.80
2024-02-04T04:08:39.958Z,7.60
2024-02-04T04:11:10.219Z,7.80
2024-02-04T04:13:38.064Z,7.70
2024-02-04T04:16:06.586Z,6.90
2024-02-04T04:18:33.632Z,6.90
2024-02-04T04:21:00.507Z,6.90
2024-02-04T04:23:27.606Z,7.70
2024-02-04T04:25:54.441Z,7.50
2024-02-04T04:28:21.248Z,7.60
2024-02-04T04:30:48.210Z,7.90
2024-02-04T04:33:15.202Z,7.40
2024-02-04T04:35:42.081Z,7.20
2024-02-04T04:38:08.887Z,7.40
2024-02-04T04:40:36.020Z,7.80
2024-02-04T04:43:02.993Z,7.00
2024-02-04T04:45:29.973Z,7.10
2024-02-04T04:47:56.915Z,7.70
2024-02-04T04:50:24.148Z,7.20
2024-02-04T04:52:51.046Z,7.60
2024-02-04T04:55:17.942Z,6.90
2024-02-04T04:57:44.814Z,6.70
2024-02-04T05:00:13.969Z,7.30
2024-02-04T05:02:45.097Z,7.30
2024-02-04T05:05:13.140Z,7.70
2024-02-04T05:07:41.315Z,7.80
2024-02-04T05:10:08.986Z,7.70
2024-02-04T05:12:37.379Z,7.10
2024-02-04T05:15:08.865Z,7.80
2024-02-04T05:17:36.312Z,7.70
2024-02-04T05:20:05.742Z,6.90
2024-02-04T05:22:32.525Z,7.20
2024-02-04T05:24:59.831Z,7.20
2024-02-04T05:27:27.251Z,6.70
2024-02-04T05:29:54.295Z,6.80
2024-02-04T05:32:21.139Z,7.10
2024-02-04T05:34:48.064Z,6.90
2024-02-04T05:37:15.115Z,7.20
2024-02-04T05:39:42.075Z,6.90
2024-02-04T05:42:08.943Z,6.80
2024-02-04T05:44:35.787Z,6.70
2024-02-04T05:47:02.945Z,6.90
2024-02-04T05:49:29.897Z,7.30
2024-02-04T05:51:56.785Z,6.90
2024-02-04T05:54:23.751Z,7.10
2024-02-04T05:56:50.614Z,6.90
2024-02-04T05:59:17.796Z,6.60
2024-02-04T06:01:45.899Z,6.90
2024-02-04T06:04:12.989Z,6.80
2024-02-04T06:06:39.999Z,6.80
2024-02-04T06:09:07.576Z,6.70
2024-02-04T06:11:34.386Z,6.60
2024-02-04T06:14:01.654Z,6.80
2024-02-04T06:16:28.582Z,7.00
2024-02-04T06:18:58.196Z,6.50
2024-02-04T06:21:25.623Z,7.10
2024-02-04T06:23:52.553Z,6.80
2024-02-04T06:26:19.412Z,6.70
2024-02-04T06:28:49.883Z,7.00
2024-02-04T06:31:16.934Z,6.70
2024-02-04T06:33:43.892Z,6.70
2024-02-04T06:36:11.738Z,6.80
2024-02-04T06:38:38.647Z,7.30
2024-02-04T06:41:05.598Z,6.50
2024-02-04T06:43:35.616Z,6.60
2024-02-04T06:46:03.874Z,6.60
2024-02-04T06:48:30.942Z,6.40
2024-02-04T06:50:57.923Z,7.00
2024-02-04T06:53:24.802Z,6.50
2024-02-04T06:55:51.600Z,6.90
2024-02-04T06:58:18.398Z,6.50
2024-02-04T07:00:47.166Z,6.70
2024-02-04T07:03:14.054Z,7.00
2024-02-04T07:05:42.174Z,6.90
2024-02-04T07:08:09.015Z,6.90
2024-02-04T07:10:35.898Z,6.30
2024-02-04T07:13:02.839Z,7.20
2024-02-04T07:15:30.094Z,6.40
2024-02-04T07:17:57.038Z,6.70
2024-02-04T07:20:23.966Z,7.00
2024-02-04T07:22:50.792Z,6.50
2024-02-04T07:25:17.648Z,6.70
2024-02-04T07:27:44.591Z,6.80
2024-02-04T07:30:11.878Z,6.70
2024-02-04T07:32:39.444Z,7.20
2024-02-04T07:35:07.478Z,6.80
2024-02-04T07:37:34.456Z,7.10
2024-02-04T07:40:02.428Z,6.90
2024-02-04T07:42:29.433Z,6.80
2024-02-04T07:44:56.289Z,7.10
2024-02-04T07:47:23.114Z,7.50
2024-02-04T07:49:51.054Z,7.50
2024-02-04T07:52:18.585Z,7.70
2024-02-04T07:54:45.503Z,7.30
2024-02-04T07:57:12.303Z,7.40
2024-02-04T07:59:39.213Z,7.60
2024-02-04T08:02:08.035Z,7.40
2024-02-04T08:04:35.092Z,7.70
2024-02-04T08:07:03.025Z,7.30
2024-02-04T08:09:29.969Z,7.30
2024-02-04T08:11:59.696Z,7.00
2024-02-04T08:14:26.800Z,7.20
2024-02-04T08:16:53.685Z,7.20
2024-02-04T08:19:20.550Z,7.40
2024-02-04T08:21:47.473Z,8.20
2024-02-04T08:24:14.546Z,7.60
2024-02-04T08:26:41.437Z,7.70
2024-02-04T08:29:08.398Z,7.50
2024-02-04T08:31:35.249Z,7.70
2024-02-04T08:34:03.613Z,7.90
2024-02-04T08:36:33.654Z,7.40
2024-02-04T08:39:00.464Z,7.60
2024-02-04T08:41:27.280Z,7.10
2024-02-04T08:43:54.093Z,7.20
2024-02-04T08:46:20.924Z,7.50
2024-02-04T08:48:47.889Z,7.10
2024-02-04T08:51:17.133Z,7.40
2024-02-04T08:53:44.066Z,7.40
2024-02-04T08:56:10.871Z,7.70
2024-02-04T08:58:38.546Z,7.70
2024-02-04T09:01:06.659Z,7.50
2024-02-04T09:03:35.033Z,7.20
2024-02-04T09:06:02.036Z,7.40
2024-02-04T09:08:28.865Z,7.60
2024-02-04T09:10:55.822Z,7.80
2024-02-04T09:13:22.802Z,8.00
2024-02-04T09:15:51.410Z,7.60
2024-02-04T09:18:18.398Z,8.00
2024-02-04T09:20:45.904Z,8.20
2024-02-04T09:23:13.223Z,8.30
2024-02-04T09:25:40.190Z,8.20
2024-02-04T09:28:07.261Z,7.80
2024-02-04T09:30:34.343Z,7.90
2024-02-04T09:33:01.454Z,8.40
2024-02-04T09:35:28.713Z,8.00
2024-02-04T09:37:55.912Z,8.00
2024-02-04T09:40:23.467Z,7.90
2024-02-04T09:42:50.811Z,7.50
2024-02-04T09:45:18.433Z,7.50
2024-02-04T09:47:47.243Z,7.70
2024-02-04T09:50:16.827Z,8.00
2024-02-04T09:52:57.455Z,8.20
2024-02-04T09:55:25.965Z,8.70
2024-02-04T09:57:53.163Z,8.10
2024-02-04T10:00:24.281Z,8.10
2024-02-04T10:02:51.261Z,8.10
2024-02-04T10:05:18.495Z,8.30
2024-02-04T10:07:45.762Z,9.30
2024-02-04T10:10:13.743Z,9.60
2024-02-04T10:12:42.353Z,9.00
2024-02-04T10:15:10.314Z,8.40
2024-02-04T10:17:37.433Z,8.30
2024-02-04T10:20:04.962Z,8.40
2024-02-04T10:22:31.802Z,8.30
2024-02-04T10:25:14.768Z,8.30
2024-02-04T10:27:42.782Z,8.20
2024-02-04T10:30:10.398Z,8.70
2024-02-04T10:32:37.309Z,9.10
2024-02-04T10:35:04.821Z,10.10
2024-02-04T10:37:31.834Z,9.30
2024-02-04T10:39:58.734Z,9.70
2024-02-04T10:42:28.127Z,9.70
2024-02-04T10:44:55.917Z,9.50
2024-02-04T10:47:34.733Z,9.80
2024-02-04T10:50:05.202Z,10.00
2024-02-04T10:52:41.995Z,9.70
2024-02-04T10:55:11.083Z,10.60
2024-02-04T10:57:41.005Z,10.60
2024-02-04T11:00:09.846Z,9.50
2024-02-04T11:02:38.514Z,9.90
2024-02-04T11:05:07.343Z,9.70
2024-02-04T11:07:35.546Z,9.10
2024-02-04T11:10:03.595Z,9.60
2024-02-04T11:12:33.154Z,9.20
2024-02-04T11:15:09.680Z,9.50
2024-02-04T11:18:06.275Z,10.50
2024-02-04T11:21:24.333Z,10.00
2024-02-04T11:24:26.874Z,9.90
2024-02-04T11:26:54.109Z,9.70
2024-02-04T11:29:21.038Z,10.40
2024-02-04T11:31:48.128Z,10.30
2024-02-04T11:34:15.379Z,10.10
2024-02-04T11:36:42.510Z,10.50
2024-02-04T11:39:22.325Z,10.40
2024-02-04T11:41:52.584Z,10.70
2024-02-04T11:44:23.530Z,10.10
2024-02-04T11:46:51.790Z,10.40
2024-02-04T11:49:27.099Z,10.30
2024-02-04T11:51:54.493Z,10.00
2024-02-04T11:54:22.972Z,9.30
2024-02-04T11:56:55.509Z,10.00
2024-02-04T11:59:24.823Z,10.10
2024-02-04T12:01:56.696Z,10.40
2024-02-04T12:04:24.026Z,10.20
2024-02-04T12:06:52.449Z,9.70
2024-02-04T12:09:20.358Z,9.80
2024-02-04T12:11:48.138Z,9.80
2024-02-04T12:14:16.528Z,9.80
2024-02-04T12:16:43.336Z,9.40
2024-02-04T12:19:10.387Z,10.20
2024-02-04T12:21:38.410Z,10.40
2024-02-04T12:24:05.917Z,11.00
2024-02-04T12:26:32.944Z,10.30
2024-02-04T12:29:00.038Z,10.70
2024-02-04T12:31:32.602Z,10.90
2024-02-04T12:34:02.951Z,11.00
2024-02-04T12:36:33.841Z,10.70
2024-02-04T12:39:02.594Z,10.00
2024-02-04T12:41:30.684Z,10.40
2024-02-04T12:44:00.289Z,9.90
2024-02-04T12:46:27.969Z,9.40
2024-02-04T12:48:56.657Z,9.40
2024-02-04T12:51:32.617Z,9.70
2024-02-04T12:54:11.680Z,9.30
2024-02-04T12:56:52.210Z,9.30
2024-02-04T12:59:32.981Z,9.40
2024-02-04T13:02:09.071Z,9.70
2024-02-04T13:06:03.408Z,9.80
2024-02-04T13:08:30.711Z,10.10
2024-02-04T13:10:58.504Z,9.40
2024-02-04T13:13:28.311Z,9.60
2024-02-04T13:15:55.328Z,9.70
2024-02-04T13:18:22.378Z,9.90
2024-02-04T13:20:49.832Z,9.50
2024-02-04T13:23:16.703Z,10.30
2024-02-04T13:25:43.707Z,10.10
2024-02-04T13:28:10.655Z,9.80
2024-02-04T13:30:38.078Z,10.10
2024-02-04T13:33:05.572Z,9.80
2024-02-04T13:35:33.560Z,10.00
2024-02-04T13:38:00.502Z,9.70
2024-02-04T13:40:27.834Z,10.50
2024-02-04T13:42:54.869Z,9.50
2024-02-04T13:45:22.376Z,9.80
2024-02-04T13:47:49.254Z,9.30
2024-02-04T13:50:16.408Z,9.50
2024-02-04T13:52:43.392Z,10.00
2024-02-04T13:55:10.423Z,9.40
2024-02-04T13:57:37.774Z,9.80
2024-02-04T14:00:06.672Z,9.40
2024-02-04T14:02:33.877Z,9.60
2024-02-04T14:05:01.030Z,9.50
2024-02-04T14:07:28.679Z,10.30
2024-02-04T14:09:56.944Z,9.80
2024-02-04T14:12:24.549Z,10.40
2024-02-04T14:14:51.533Z,9.90
2024-02-04T14:17:18.351Z,10.40
2024-02-04T14:19:49.903Z,9.60
2024-02-04T14:22:18.713Z,9.70
2024-02-04T14:24:46.772Z,9.50
2024-02-04T14:27:13.910Z,9.30
2024-02-04T14:29:40.751Z,9.80
2024-02-04T14:32:07.683Z,9.40
2024-02-04T14:34:35.609Z,9.30
2024-02-04T14:37:02.591Z,9.50
2024-02-04T14:39:32.312Z,9.40
2024-02-04T14:41:59.748Z,9.10
2024-02-04T14:44:26.664Z,9.40
2024-02-04T14:46:53.548Z,9.80
2024-02-04T14:49:20.543Z,9.90
2024-02-04T14:51:47.510Z,9.60
2024-02-04T14:54:14.430Z,10.00
2024-02-04T14:56:42.593Z,9.90
2024-02-04T14:59:21.140Z,9.80
2024-02-04T15:01:51.484Z,10.40
2024-02-04T15:04:19.572Z,10.60
2024-02-04T15:06:47.091Z,9.90
2024-02-04T15:09:15.602Z,9.70
2024-02-04T15:11:43.345Z,9.50
2024-02-04T15:14:10.500Z,9.00
2024-02-04T15:16:39.971Z,9.60
2024-02-04T15:19:08.087Z,9.80
2024-02-04T15:21:36.486Z,10.20
2024-02-04T15:24:07.387Z,9.60
2024-02-04T15:26:37.985Z,9.70
2024-02-04T15:29:05.618Z,9.20
2024-02-04T15:31:36.782Z,9.10
2024-02-04T15:34:08.944Z,9.00
2024-02-04T15:36:37.520Z,8.90
2024-02-04T15:39:04.728Z,8.80
2024-02-04T15:41:33.252Z,8.90
2024-02-04T15:44:00.212Z,8.60
2024-02-04T15:46:29.060Z,8.70
2024-02-04T15:48:56.970Z,8.70
2024-02-04T15:51:24.520Z,8.70
2024-02-04T15:53:51.768Z,8.60
2024-02-04T15:56:25.019Z,9.00
2024-02-04T15:59:06.320Z,9.00
2024-02-04T16:01:35.614Z,8.80
2024-02-04T16:04:06.442Z,8.90
2024-02-04T16:06:34.368Z,8.90
2024-02-04T16:09:02.717Z,8.60
2024-02-04T16:11:59.917Z,8.60
2024-02-04T16:14:29.655Z,8.70
2024-02-04T16:17:05.146Z,8.50
2024-02-04T16:19:35.621Z,8.50
2024-02-04T16:22:03.896Z,8.30
2024-02-04T16:24:31.025Z,8.50
2024-02-04T16:26:58.016Z,8.60
2024-02-04T16:29:28.945Z,8.70
2024-02-04T16:31:56.182Z,8.40
2024-02-04T16:34:23.443Z,9.10
2024-02-04T16:36:50.707Z,8.50
2024-02-04T16:39:18.002Z,8.40
2024-02-04T16:41:45.747Z,8.20
2024-02-04T16:44:14.896Z,8.10
2024-02-04T16:46:42.022Z,8.10
2024-02-04T16:49:09.282Z,8.00
2024-02-04T16:51:43.016Z,8.20
2024-02-04T16:54:10.476Z,7.90
2024-02-04T16:56:40.636Z,8.20
2024-02-04T16:59:09.621Z,8.10
2024-02-04T17:01:36.603Z,7.90
2024-02-04T17:04:04.268Z,8.10
2024-02-04T17:06:32.245Z,8.10
2024-02-04T17:09:02.699Z,7.90
2024-02-04T17:11:30.409Z,7.90
2024-02-04T17:13:58.140Z,7.60
2024-02-04T17:16:37.404Z,7.70
2024-02-04T17:19:30.959Z,7.90
2024-02-04T17:22:02.428Z,8.10
2024-02-04T17:24:29.591Z,7.80
2024-02-04T17:26:58.054Z,8.00
2024-02-04T17:29:26.796Z,7.90
2024-02-04T17:31:54.090Z,8.00
2024-02-04T17:34:22.317Z,7.70
2024-02-04T17:36:49.285Z,7.70
2024-02-04T17:39:17.842Z,7.80
2024-02-04T17:41:44.686Z,7.80
2024-02-04T17:44:12.035Z,7.90
2024-02-04T17:46:39.350Z,7.70
2024-02-04T17:49:10.370Z,7.60
2024-02-04T17:51:37.398Z,8.00
2024-02-04T17:54:04.674Z,7.60
2024-02-04T17:56:31.476Z,7.60
2024-02-04T17:58:58.250Z,7.50
2024-02-04T18:01:26.267Z,7.60
2024-02-04T18:03:53.250Z,7.40
2024-02-04T18:06:21.608Z,7.60
2024-02-04T18:08:48.477Z,7.70
2024-02-04T18:11:17.385Z,7.70
2024-02-04T18:13:45.739Z,7.60
2024-02-04T18:16:13.772Z,7.40
2024-02-04T18:18:43.217Z,7.80
2024-02-04T18:21:23.869Z,7.50
2024-02-04T18:23:53.115Z,7.40
2024-02-04T18:26:34.492Z,8.00
2024-02-04T18:29:03.360Z,7.80
2024-02-04T18:31:32.007Z,7.80
2024-02-04T18:34:01.002Z,7.40
2024-02-04T18:36:29.044Z,7.70
2024-02-04T18:38:58.376Z,7.80
2024-02-04T18:41:25.597Z,8.50
2024-02-04T18:43:54.834Z,8.20
2024-02-04T18:46:22.172Z,7.80
2024-02-04T18:48:49.328Z,8.00
2024-02-04T18:51:16.880Z,8.50
2024-02-04T18:53:43.928Z,7.90
2024-02-04T18:56:16.361Z,8.10
2024-02-04T18:58:48.449Z,8.30
2024-02-04T19:01:20.744Z,8.70
2024-02-04T19:03:50.139Z,8.60
2024-02-04T19:06:31.790Z,8.70
2024-02-04T19:08:59.668Z,7.90
2024-02-04T19:11:26.702Z,8.00
2024-02-04T19:13:53.560Z,8.20
2024-02-04T19:16:24.797Z,7.80
2024-02-04T19:18:52.327Z,7.50
2024-02-04T19:21:19.604Z,8.00
2024-02-04T19:23:46.819Z,7.90
2024-02-04T19:26:15.005Z,7.90
2024-02-04T19:28:41.941Z,8.10
2024-02-04T19:31:13.172Z,7.20
2024-02-04T19:33:40.269Z,7.70
2024-02-04T19:36:08.044Z,7.20
2024-02-04T19:38:34.846Z,7.60
2024-02-04T19:41:01.634Z,8.30
2024-02-04T19:43:31.465Z,7.20
2024-02-04T19:45:59.461Z,7.50
2024-02-04T19:48:27.837Z,7.50
2024-02-04T19:50:54.911Z,7.30
2024-02-04T19:53:21.847Z,7.50
2024-02-04T19:55:48.768Z,7.90
2024-02-04T19:58:15.912Z,7.40
2024-02-04T20:00:43.294Z,7.80
2024-02-04T20:03:10.483Z,8.00
2024-02-04T20:05:37.357Z,8.30
2024-02-04T20:08:04.595Z,7.40
2024-02-04T20:10:31.430Z,7.50
2024-02-04T20:12:58.261Z,7.60
2024-02-04T20:15:27.380Z,7.70
2024-02-04T20:17:58.049Z,8.10
2024-02-04T20:20:25.285Z,7.70
2024-02-04T20:22:55.273Z,7.50
2024-02-04T20:25:28.092Z,7.50
2024-02-04T20:27:56.806Z,7.70
2024-02-04T20:30:29.014Z,7.30
2024-02-04T20:32:56.482Z,8.00
2024-02-04T20:35:25.821Z,7.50
2024-02-04T20:37:57.089Z,7.50
2024-02-04T20:40:25.511Z,7.70
2024-02-04T20:42:52.943Z,8.30
2024-02-04T20:45:20.921Z,7.80
2024-02-04T20:47:49.666Z,7.20
2024-02-04T20:50:16.994Z,7.30
2024-02-04T20:52:44.116Z,7.70
2024-02-04T20:55:11.098Z,7.70
2024-02-04T20:57:38.796Z,7.30
2024-02-04T21:00:07.893Z,7.80
2024-02-04T21:02:35.186Z,8.10
2024-02-04T21:05:02.195Z,7.40
2024-02-04T21:07:29.458Z,7.10
2024-02-04T21:09:56.474Z,7.10
2024-02-04T21:12:23.504Z,7.40
2024-02-04T21:14:50.614Z,7.30
2024-02-04T21:17:17.555Z,7.30
2024-02-04T21:19:46.212Z,7.60
2024-02-04T21:22:13.618Z,7.00
2024-02-04T21:24:40.813Z,7.10
2024-02-04T21:27:08.396Z,7.40
2024-02-04T21:29:35.363Z,7.20
2024-02-04T21:32:02.245Z,7.10
2024-02-04T21:34:29.571Z,7.60
2024-02-04T21:36:56.613Z,7.20
2024-02-04T21:39:23.452Z,7.00
2024-02-04T21:41:50.889Z,7.70
2024-02-04T21:44:17.975Z,7.30
2024-02-04T21:46:49.209Z,7.00
2024-02-04T21:49:16.281Z,6.90
2024-02-04T21:51:43.403Z,7.10
2024-02-04T21:54:10.422Z,7.20
2024-02-04T21:56:37.527Z,7.00
2024-02-04T21:59:04.477Z,7.00
2024-02-04T22:01:31.500Z,7.00
2024-02-04T22:03:59.280Z,6.60
2024-02-04T22:06:26.562Z,7.00
2024-02-04T22:08:53.456Z,6.40
2024-02-04T22:11:20.291Z,6.80
2024-02-04T22:13:47.458Z,7.00
2024-02-04T22:16:14.504Z,6.70
2024-02-04T22:18:41.567Z,7.00
2024-02-04T22:21:09.152Z,6.80
2024-02-04T22:23:35.940Z,7.20
2024-02-04T22:26:02.780Z,6.70
2024-02-04T22:28:29.566Z,7.00
2024-02-04T22:30:56.381Z,6.70
2024-02-04T22:33:23.260Z,6.90
2024-02-04T22:35:50.175Z,6.70
2024-02-04T22:38:16.997Z,7.20
2024-02-04T22:40:43.948Z,6.90
2024-02-04T22:43:10.832Z,6.70
2024-02-04T22:45:37.861Z,6.60
2024-02-04T22:48:06.756Z,6.60
2024-02-04T22:50:33.865Z,6.70
2024-02-04T22:53:00.768Z,6.60
2024-02-04T22:55:27.708Z,6.70
2024-02-04T22:57:54.677Z,6.80
2024-02-04T23:00:31.602Z,6.80
2024-02-04T23:02:59.953Z,6.80
2024-02-04T23:05:27.867Z,6.70
2024-02-04T23:07:59.793Z,7.00
2024-02-04T23:10:27.651Z,6.80
2024-02-04T23:12:54.618Z,7.00
2024-02-04T23:15:22.095Z,6.90
2024-02-04T23:17:50.671Z,6.90
2024-02-04T23:20:18.505Z,7.00
2024-02-04T23:22:45.448Z,7.10
2024-02-04T23:25:13.135Z,7.40
2024-02-04T23:27:40.168Z,7.00
2024-02-04T23:30:07.819Z,6.80
2024-02-04T23:32:34.655Z,7.50
2024-02-04T23:35:01.612Z,6.90
2024-02-04T23:37:28.859Z,7.10
2024-02-04T23:39:56.006Z,7.30
2024-02-04T23:42:23.004Z,6.90
2024-02-04T23:44:52.144Z,6.70
2024-02-04T23:47:19.755Z,6.70
2024-02-04T23:49:47.027Z,7.30
2024-02-04T23:52:13.968Z,7.00
2024-02-04T23:54:40.849Z,7.10
2024-02-04T23:57:07.656Z,7.20
2024-02-04T23:59:34.586Z,6.80
